Time;durP1;ratioP1;P1;durP2;ratioP2;P2;SDS_P1;SDS_P2;PMS_P1;PMS_P2;Temp;Humidity;BMP_temperature;BMP_pressure;BME280_temperature;BME280_humidity;BME280_pressure;Samples;Min_cycle;Max_cycle;Signal;HPM_P1;HPM_P2
2022/06/23 00:01:27;;;;;;;9.50;4.30;;;;;;;18.03;51.08;98748.04;233437;1222;138684;-59
2022/06/23 00:06:45;;;;;;;6.20;3.90;;;;;;;17.94;51.19;98749.39;233363;1222;138866;-60
2022/06/23 00:11:49;;;;;;;6.70;3.60;;;;;;;17.87;51.29;98742.98;233258;1223;141230;-60
2022/06/23 00:16:52;;;;;;;6.60;3.60;;;;;;;17.77;51.32;98741.94;233341;1222;138689;-59
2022/06/23 00:21:55;;;;;;;9.90;4.20;;;;;;;17.69;51.52;98736.20;233402;1223;138794;-59
2022/06/23 00:26:59;;;;;;;8.20;3.30;;;;;;;17.59;51.75;98735.01;233420;1223;139339;-60
2022/06/23 00:32:04;;;;;;;11.00;4.10;;;;;;;17.50;51.74;98742.33;233424;1223;138806;-59
2022/06/23 00:37:15;;;;;;;7.60;3.60;;;;;;;17.40;51.79;98733.50;233421;1223;138719;-58
2022/06/23 00:42:23;;;;;;;9.30;3.90;;;;;;;17.34;51.98;98738.91;233284;1222;139678;-59
2022/06/23 00:47:53;;;;;;;10.10;3.70;;;;;;;17.28;52.16;98733.36;233396;1222;138556;-59
2022/06/23 00:53:11;;;;;;;6.80;3.30;;;;;;;17.19;52.08;98731.27;232986;1223;139017;-59
2022/06/23 00:58:25;;;;;;;8.60;3.30;;;;;;;17.11;52.38;98726.52;233443;1222;139247;-59
2022/06/23 01:03:40;;;;;;;4.70;2.90;;;;;;;17.04;52.39;98725.42;233395;1222;138571;-60
2022/06/23 01:09:24;;;;;;;8.90;3.40;;;;;;;16.95;52.48;98724.05;233201;1222;208439;-60
2022/06/23 01:14:26;;;;;;;7.50;3.20;;;;;;;16.88;52.80;98720.46;233150;1222;138995;-60
2022/06/23 01:19:43;;;;;;;7.20;3.50;;;;;;;16.81;52.80;98718.56;233415;1222;138462;-58
2022/06/23 01:25:16;;;;;;;5.40;3.10;;;;;;;16.74;52.77;98719.23;233377;1222;139182;-61
2022/06/23 01:30:21;;;;;;;6.90;3.10;;;;;;;16.66;52.96;98728.34;233428;1222;138529;-61
2022/06/23 01:35:33;;;;;;;7.90;3.00;;;;;;;16.61;53.03;98723.27;233282;1222;139333;-60
2022/06/23 01:40:51;;;;;;;6.20;3.00;;;;;;;16.58;53.28;98729.99;232657;1222;138473;-59
2022/06/23 01:46:00;;;;;;;6.80;2.90;;;;;;;16.58;53.24;98742.55;233442;1222;138951;-59
2022/06/23 01:51:05;;;;;;;9.30;3.30;;;;;;;16.55;53.18;98744.02;233089;1222;138376;-58
2022/06/23 01:56:36;;;;;;;11.90;3.20;;;;;;;16.49;53.45;98749.90;233445;1222;138959;-60
2022/06/23 02:02:00;;;;;;;6.60;3.40;;;;;;;16.42;53.38;98759.91;233278;1222;138895;-61
2022/06/23 02:07:22;;;;;;;6.90;2.80;;;;;;;16.37;53.71;98762.89;233187;1222;138294;-60
2022/06/23 02:12:42;;;;;;;4.30;2.80;;;;;;;16.32;53.75;98774.41;233372;1222;138295;-61
2022/06/23 02:17:52;;;;;;;9.20;3.20;;;;;;;16.24;53.65;98781.17;233238;1222;138816;-60
2022/06/23 02:23:22;;;;;;;5.40;2.70;;;;;;;16.21;53.92;98784.52;233480;1222;139390;-68
2022/06/23 02:28:31;;;;;;;10.70;3.40;;;;;;;16.14;54.05;98787.67;233489;1222;140248;-69
2022/06/23 02:33:39;;;;;;;7.30;3.20;;;;;;;16.11;54.27;98790.30;233610;1222;138923;-68
2022/06/23 02:38:53;;;;;;;6.70;3.00;;;;;;;16.07;54.28;98795.08;233441;1222;139670;-66
2022/06/23 02:44:19;;;;;;;5.20;3.20;;;;;;;16.06;54.37;98801.09;233381;1222;138365;-65
2022/06/23 02:49:41;;;;;;;;;;;;;;;16.05;54.67;98810.67;233223;1222;138532;-63
2022/06/23 02:55:18;;;;;;;14.20;8.70;;;;;;;16.16;54.88;98812.88;233393;1222;126442;-63
2022/06/23 03:00:34;;;;;;;47.50;35.70;;;;;;;16.28;54.79;98807.52;233485;1222;139027;-63
2022/06/23 03:05:57;;;;;;;;;;;;;;;16.43;54.67;98810.37;233449;1222;139170;-61
2022/06/23 03:11:14;;;;;;;6.10;3.10;;;;;;;16.48;54.58;98815.07;233505;1221;125016;-59
2022/06/23 03:16:47;;;;;;;37.90;26.90;;;;;;;16.55;54.58;98816.58;233499;1222;138512;-60
2022/06/23 03:22:00;;;;;;;7.50;3.90;;;;;;;16.62;54.73;98816.98;233640;1220;141615;-59
2022/06/23 03:27:22;;;;;;;153.60;110.70;;;;;;;16.72;54.63;98818.09;233439;1222;139455;-61
2022/06/23 03:32:44;;;;;;;14.60;8.80;;;;;;;16.93;54.81;98824.98;233200;1222;138730;-65
2022/06/23 03:38:13;;;;;;;11.20;3.50;;;;;;;17.07;54.62;98833.19;233498;1222;138427;-65
2022/06/23 03:43:31;;;;;;;6.80;2.90;;;;;;;17.09;54.15;98830.30;233537;1222;139338;-67
2022/06/23 03:48:41;;;;;;;10.40;3.00;;;;;;;17.10;54.15;98841.52;231505;1222;138267;-67
2022/06/23 03:53:55;;;;;;;5.20;3.00;;;;;;;17.11;54.20;98841.83;233539;1222;138726;-68
2022/06/23 03:59:12;;;;;;;7.60;3.20;;;;;;;17.16;54.28;98845.25;233478;1222;138609;-64
2022/06/23 04:04:19;;;;;;;7.30;2.80;;;;;;;17.20;54.51;98849.70;233629;1222;139755;-67
2022/06/23 04:09:34;;;;;;;68.90;55.80;;;;;;;17.31;54.52;98855.19;233516;1222;138488;-58
2022/06/23 04:15:21;;;;;;;11.00;7.20;;;;;;;17.53;55.04;98850.09;233513;1222;139639;-59
2022/06/23 04:20:32;;;;;;;6.80;3.50;;;;;;;17.70;54.60;98856.66;232484;1227;139129;-61
2022/06/23 04:26:00;;;;;;;5.40;3.10;;;;;;;17.80;54.72;98859.41;233150;1222;138959;-60
2022/06/23 04:31:07;;;;;;;8.40;3.30;;;;;;;17.92;54.31;98871.13;233519;1222;139477;-60
2022/06/23 04:36:21;;;;;;;12.90;3.70;;;;;;;18.00;54.50;98871.48;233437;1222;138454;-60
2022/06/23 04:41:27;;;;;;;8.50;3.50;;;;;;;18.17;54.45;98875.59;233425;1222;138669;-59
2022/06/23 04:46:36;;;;;;;11.20;4.00;;;;;;;18.36;54.71;98879.14;233488;1222;139172;-60
2022/06/23 04:51:50;;;;;;;10.60;4.00;;;;;;;18.57;54.66;98882.65;233679;1222;138442;-60
2022/06/23 04:57:17;;;;;;;10.90;3.70;;;;;;;18.83;54.27;98883.58;233498;1222;138683;-56
2022/06/23 05:02:27;;;;;;;12.60;4.20;;;;;;;19.02;53.90;98891.44;233223;1222;138532;-59
2022/06/23 05:07:41;;;;;;;7.50;3.60;;;;;;;19.24;53.66;98900.17;233389;1222;139815;-62
2022/06/23 05:12:51;;;;;;;10.30;3.90;;;;;;;19.39;53.60;98894.12;233507;1222;140201;-61
2022/06/23 05:18:02;;;;;;;14.80;3.60;;;;;;;19.58;53.52;98907.29;233485;1222;138689;-61
2022/06/23 05:23:12;;;;;;;17.60;9.70;;;;;;;19.70;53.20;98905.25;233523;1222;138594;-61
2022/06/23 05:28:30;;;;;;;6.60;3.90;;;;;;;19.85;53.13;98913.48;233069;1222;138581;-61
2022/06/23 05:33:41;;;;;;;9.60;2.70;;;;;;;19.94;52.90;98911.48;233388;1222;138154;-61
2022/06/23 05:39:10;;;;;;;5.40;2.00;;;;;;;20.06;52.33;98917.54;233493;1222;138683;-60
2022/06/23 05:44:18;;;;;;;5.80;1.90;;;;;;;20.16;51.90;98918.67;233372;1222;138975;-59
2022/06/23 05:49:34;;;;;;;4.90;2.20;;;;;;;20.27;51.59;98926.19;233297;1222;139021;-60
2022/06/23 05:54:43;;;;;;;6.60;2.70;;;;;;;20.39;51.15;98927.48;233588;1222;139675;-63
2022/06/23 05:59:47;;;;;;;17.50;3.30;;;;;;;20.52;50.81;98934.55;233209;1222;139683;-62
2022/06/23 06:04:57;;;;;;;7.50;2.80;;;;;;;20.60;50.52;98934.39;233556;1222;139339;-60
2022/06/23 06:10:05;;;;;;;7.90;2.70;;;;;;;20.68;49.87;98937.11;233665;1222;138819;-61
2022/06/23 06:15:22;;;;;;;5.80;2.30;;;;;;;20.70;49.52;98937.74;233429;1222;139355;-59
2022/06/23 06:20:26;;;;;;;5.40;2.40;;;;;;;20.82;49.23;98941.95;233086;1222;138497;-62
2022/06/23 06:25:37;;;;;;;10.30;2.70;;;;;;;20.94;49.08;98950.86;233352;1222;139862;-59
2022/06/23 06:30:48;;;;;;;4.00;2.20;;;;;;;21.02;48.84;98956.89;232748;1222;139016;-61
2022/06/23 06:35:55;;;;;;;5.30;2.10;;;;;;;21.07;48.85;98957.23;233263;1222;140233;-58
2022/06/23 06:40:59;;;;;;;6.70;2.30;;;;;;;21.18;48.76;98963.96;233531;1222;138115;-59
2022/06/23 06:46:02;;;;;;;5.90;2.20;;;;;;;21.24;48.48;98962.85;233441;1222;141129;-64
2022/06/23 06:51:13;;;;;;;9.70;2.20;;;;;;;21.34;47.95;98969.86;233592;1222;139254;-64
2022/06/23 06:56:22;;;;;;;5.30;2.00;;;;;;;21.41;47.66;98967.52;233591;1222;138850;-61
2022/06/23 07:01:26;;;;;;;5.20;2.00;;;;;;;21.52;47.57;98972.61;233273;1222;141115;-57
2022/06/23 07:06:42;;;;;;;2.20;1.60;;;;;;;21.59;47.44;98976.63;233305;1222;138989;-57
2022/06/23 07:11:52;;;;;;;3.70;1.70;;;;;;;21.66;47.39;98976.94;233593;1222;139218;-60
2022/06/23 07:17:03;;;;;;;3.20;1.70;;;;;;;21.69;46.99;98973.18;233263;1222;139527;-61
2022/06/23 07:22:24;;;;;;;4.70;1.70;;;;;;;21.80;46.70;98977.60;233601;1222;138536;-61
2022/06/23 07:27:37;;;;;;;2.70;1.80;;;;;;;21.88;46.37;98980.23;233338;1222;138093;-57
2022/06/23 07:32:46;;;;;;;2.80;1.50;;;;;;;21.99;45.92;98984.34;233350;1222;139576;-58
2022/06/23 07:38:03;;;;;;;4.70;1.70;;;;;;;22.05;45.85;98987.65;233619;1222;139330;-57
2022/06/23 07:43:06;;;;;;;3.60;1.70;;;;;;;22.13;45.49;98998.29;233323;1222;138865;-57
2022/06/23 07:48:09;;;;;;;3.20;1.50;;;;;;;22.15;45.21;98999.90;233612;1222;139405;-61
2022/06/23 07:53:25;;;;;;;6.60;1.50;;;;;;;22.19;44.96;99000.35;233587;1222;138385;-63
2022/06/23 07:58:29;;;;;;;;;;;;;;;22.18;44.77;99005.38;233657;1222;140445;-61
2022/06/23 08:03:43;;;;;;;6.20;1.70;;;;;;;22.23;44.58;99001.95;233642;1222;124801;-63
2022/06/23 08:08:50;;;;;;;5.00;1.50;;;;;;;22.35;44.44;99004.30;232994;1224;139676;-62
2022/06/23 08:14:15;;;;;;;7.00;1.50;;;;;;;22.47;44.26;99005.52;233424;1222;139313;-62
2022/06/23 08:19:50;;;;;;;1.60;1.40;;;;;;;22.49;43.97;99003.04;233619;1222;138521;-62
2022/06/23 08:24:57;;;;;;;2.00;1.60;;;;;;;22.56;43.63;99002.13;233522;1222;138138;-62
2022/06/23 08:30:22;;;;;;;3.00;1.60;;;;;;;22.66;43.38;99006.45;233508;1222;138275;-62
2022/06/23 08:35:44;;;;;;;5.70;1.40;;;;;;;22.74;43.08;99005.11;233547;1222;138912;-62
2022/06/23 08:41:11;;;;;;;3.00;1.40;;;;;;;22.88;42.90;99011.95;232973;1222;138738;-62
2022/06/23 08:46:24;;;;;;;6.20;1.70;;;;;;;23.03;42.91;99003.02;233700;1222;140103;-57
2022/06/23 08:52:08;;;;;;;3.50;1.90;;;;;;;23.05;42.41;99010.94;233214;1222;140453;-58
2022/06/23 08:57:27;;;;;;;6.60;1.60;;;;;;;23.03;42.07;99008.71;233501;1222;139720;-64
2022/06/23 09:02:37;;;;;;;3.70;1.70;;;;;;;23.02;42.01;99008.98;233290;1222;138374;-66
2022/06/23 09:08:24;;;;;;;3.10;1.90;;;;;;;23.15;42.35;99007.09;233511;1222;138130;-63
2022/06/23 09:13:57;;;;;;;3.90;1.70;;;;;;;23.35;41.74;99016.89;233570;1222;138029;-62
2022/06/23 09:19:12;;;;;;;6.30;1.50;;;;;;;23.40;41.66;99011.66;233501;1222;139642;-64
2022/06/23 09:24:28;;;;;;;5.00;1.60;;;;;;;23.43;41.15;99012.52;233558;1222;138561;-63
2022/06/23 09:29:45;;;;;;;9.70;2.00;;;;;;;23.49;41.22;99009.85;233038;1222;139236;-64
2022/06/23 09:35:18;;;;;;;11.50;2.10;;;;;;;23.67;41.53;99007.65;233423;1222;138528;-62
2022/06/23 09:40:52;;;;;;;5.00;2.30;;;;;;;23.85;41.28;99001.93;233298;1222;138692;-60
2022/06/23 09:46:20;;;;;;;4.00;1.70;;;;;;;24.11;41.25;99006.98;233631;1222;138755;-62
2022/06/23 09:51:50;;;;;;;3.80;1.70;;;;;;;24.36;40.83;99010.29;233068;1224;138492;-63
2022/06/23 09:57:11;;;;;;;6.70;2.30;;;;;;;24.57;40.34;99007.39;233554;1222;138266;-63
2022/06/23 10:02:34;;;;;;;4.90;1.70;;;;;;;24.93;40.39;99011.88;233437;1221;138674;-59
2022/06/23 10:08:02;;;;;;;3.00;1.40;;;;;;;25.15;39.88;98998.13;232999;1221;138683;-60
2022/06/23 10:13:24;;;;;;;6.30;2.70;;;;;;;25.39;39.31;98992.67;233375;1222;140005;-57
2022/06/23 10:19:10;;;;;;;3.50;2.10;;;;;;;25.45;38.81;99001.06;232303;1222;138212;-57
2022/06/23 10:24:52;;;;;;;5.80;1.70;;;;;;;25.21;38.59;99010.11;233365;1222;138821;-59
2022/06/23 10:30:14;;;;;;;4.50;1.60;;;;;;;25.43;38.47;99006.08;233149;1222;138653;-58
2022/06/23 10:36:09;;;;;;;2.60;1.60;;;;;;;25.79;38.06;99009.80;233245;1222;139780;-58
2022/06/23 10:41:40;;;;;;;4.70;1.40;;;;;;;25.79;37.60;99010.60;232857;1223;139064;-58
2022/06/23 10:47:09;;;;;;;2.20;2.00;;;;;;;25.90;37.56;99006.98;232206;1224;138261;-58
2022/06/23 10:52:22;;;;;;;3.50;1.50;;;;;;;26.04;37.10;99005.91;232601;1224;138754;-56
2022/06/23 10:57:34;;;;;;;7.30;1.50;;;;;;;26.24;37.13;98998.11;232506;1224;138948;-55
2022/06/23 11:03:02;;;;;;;8.90;1.60;;;;;;;26.55;36.84;98994.99;232655;1223;139163;-58
2022/06/23 11:08:43;;;;;;;2.00;1.40;;;;;;;26.46;35.86;98990.16;232636;1223;138806;-59
2022/06/23 11:14:31;;;;;;;3.40;1.40;;;;;;;26.35;35.72;98985.15;232774;1224;139156;-59
2022/06/23 11:19:50;;;;;;;2.70;1.80;;;;;;;26.23;35.85;98988.55;231791;1226;138564;-58
2022/06/23 11:25:04;;;;;;;4.20;1.50;;;;;;;26.30;36.43;98984.40;232523;1223;138174;-56
2022/06/23 11:30:18;;;;;;;3.40;1.50;;;;;;;26.55;36.06;98974.33;232631;1224;139539;-58
2022/06/23 11:35:27;;;;;;;2.40;1.60;;;;;;;26.82;36.04;98972.86;232659;1222;138697;-56
2022/06/23 11:40:53;;;;;;;9.10;1.40;;;;;;;27.03;35.85;98978.05;232794;1222;139079;-58
2022/06/23 11:46:15;;;;;;;4.80;1.60;;;;;;;27.29;35.60;98970.76;232760;1222;140044;-58
2022/06/23 11:51:20;;;;;;;1.90;1.30;;;;;;;27.50;35.68;98970.88;232446;1222;139190;-61
2022/06/23 11:56:43;;;;;;;38.80;32.10;;;;;;;27.75;35.36;98971.27;232361;1224;139499;-58
2022/06/23 12:01:46;;;;;;;3.90;1.80;;;;;;;27.90;34.93;98970.05;232615;1223;141297;-59
2022/06/23 12:07:00;;;;;;;4.70;1.40;;;;;;;28.01;34.65;98970.61;232775;1223;140656;-59
2022/06/23 12:12:05;;;;;;;4.10;1.40;;;;;;;28.13;34.31;98970.23;232644;1223;140027;-59
2022/06/23 12:17:33;;;;;;;5.90;1.60;;;;;;;28.32;33.67;98967.69;232603;1221;138687;-57
2022/06/23 12:22:48;;;;;;;1.80;1.20;;;;;;;28.45;33.41;98961.25;232737;1224;138518;-59
2022/06/23 12:27:59;;;;;;;;;;;;;;;28.54;32.99;98959.65;232642;1223;138899;-59
2022/06/23 12:33:13;;;;;;;2.50;1.40;;;;;;;28.72;33.04;98958.78;232517;1224;125358;-60
2022/06/23 12:38:26;;;;;;;4.10;1.90;;;;;;;28.91;32.81;98963.46;232439;1223;139010;-58
2022/06/23 12:43:38;;;;;;;4.30;1.60;;;;;;;28.90;32.36;98962.88;232730;1223;138973;-56
2022/06/23 12:49:00;;;;;;;4.70;1.20;;;;;;;29.03;32.44;98957.11;232708;1223;138671;-59
2022/06/23 12:54:18;;;;;;;4.80;1.20;;;;;;;29.15;31.90;98950.67;232513;1224;138835;-56
2022/06/23 12:59:32;;;;;;;7.40;1.50;;;;;;;29.38;31.79;98952.17;232379;1223;138600;-59
2022/06/23 13:04:35;;;;;;;2.30;1.30;;;;;;;29.66;31.55;98954.98;232440;1223;139094;-58
2022/06/23 13:10:03;;;;;;;3.70;1.30;;;;;;;29.92;31.30;98956.72;232496;1221;138969;-55
2022/06/23 13:15:23;;;;;;;11.20;7.50;;;;;;;30.20;31.21;98954.83;232517;1223;139304;-59
2022/06/23 13:20:42;;;;;;;6.60;2.50;;;;;;;30.35;31.16;98945.91;232342;1224;138810;-59
2022/06/23 13:25:55;;;;;;;7.50;1.60;;;;;;;30.27;30.77;98944.23;232618;1222;139329;-59
2022/06/23 13:31:17;;;;;;;8.40;1.70;;;;;;;29.69;30.26;98948.14;232471;1223;140432;-60
2022/06/23 13:36:30;;;;;;;3.60;1.20;;;;;;;29.51;30.78;98944.89;232604;1223;139560;-60
2022/06/23 13:41:45;;;;;;;2.00;1.30;;;;;;;29.71;30.79;98941.67;232522;1223;139150;-56
2022/06/23 13:47:18;;;;;;;2.60;1.30;;;;;;;29.98;31.07;98937.34;232770;1222;139079;-59
2022/06/23 13:52:52;;;;;;;3.90;1.60;;;;;;;29.85;30.66;98931.23;232661;1223;139434;-60
2022/06/23 13:58:03;;;;;;;5.00;1.50;;;;;;;29.57;30.26;98926.30;232763;1223;139426;-58
2022/06/23 14:03:44;;;;;;;4.20;1.40;;;;;;;29.12;30.33;98930.36;232548;1223;139354;-59
2022/06/23 14:09:00;;;;;;;2.40;1.60;;;;;;;28.69;30.65;98936.84;232505;1223;139277;-60
2022/06/23 14:14:19;;;;;;;3.60;2.00;;;;;;;28.34;30.75;98937.71;232685;1223;139191;-59
2022/06/23 14:19:41;;;;;;;3.30;1.40;;;;;;;28.48;31.20;98930.45;232639;1223;139594;-58
2022/06/23 14:25:03;;;;;;;3.10;1.80;;;;;;;28.39;30.97;98931.38;232639;1223;139304;-59
2022/06/23 14:30:24;;;;;;;4.50;2.80;;;;;;;28.27;31.11;98926.65;232627;1223;138927;-58
2022/06/23 14:35:36;;;;;;;2.90;2.40;;;;;;;28.35;31.43;98926.30;232522;1223;139634;-59
2022/06/23 14:41:13;;;;;;;5.50;2.00;;;;;;;28.20;31.18;98928.17;232637;1223;140027;-58
2022/06/23 14:46:31;;;;;;;4.20;2.00;;;;;;;28.00;31.46;98925.36;232700;1222;138799;-56
2022/06/23 14:52:06;;;;;;;6.40;2.10;;;;;;;27.77;31.48;98929.52;232455;1223;139938;-56
2022/06/23 14:57:18;;;;;;;;;;;;;;;27.61;31.91;98925.59;232409;1224;139578;-56
2022/06/23 15:02:48;;;;;;;3.50;1.30;;;;;;;27.50;32.02;98916.69;232675;1223;125820;-56
2022/06/23 15:08:07;;;;;;;6.80;1.40;;;;;;;27.37;31.88;98911.16;232496;1223;139222;-57
2022/06/23 15:13:13;;;;;;;3.40;2.00;;;;;;;27.29;31.71;98905.70;232668;1222;140297;-59
2022/06/23 15:18:29;;;;;;;8.00;3.00;;;;;;;27.15;31.83;98904.36;232690;1221;139194;-58
2022/06/23 15:23:45;;;;;;;5.20;2.00;;;;;;;26.99;32.12;98905.48;232585;1223;139244;-57
2022/06/23 15:28:56;;;;;;;4.90;1.80;;;;;;;26.74;32.29;98899.20;232744;1223;140216;-56
2022/06/23 15:34:18;;;;;;;5.70;1.80;;;;;;;26.64;32.50;98899.63;232770;1223;139676;-58
2022/06/23 15:39:44;;;;;;;70.50;54.50;;;;;;;26.60;32.79;98910.27;232394;1222;138966;-58
2022/06/23 15:44:53;;;;;;;7.80;3.20;;;;;;;26.51;32.82;98904.39;232721;1223;139701;-59
2022/06/23 15:50:03;;;;;;;9.60;1.70;;;;;;;26.42;33.07;98904.83;232665;1221;138776;-57
2022/06/23 15:55:28;;;;;;;4.40;1.50;;;;;;;26.40;33.42;98904.69;232697;1222;138576;-59
2022/06/23 16:00:41;;;;;;;5.50;1.60;;;;;;;26.29;33.33;98894.80;232600;1223;140251;-58
2022/06/23 16:05:55;;;;;;;4.10;1.50;;;;;;;26.32;33.70;98906.78;232420;1222;138793;-55
2022/06/23 16:11:17;;;;;;;5.30;1.50;;;;;;;26.37;33.70;98908.11;232332;1223;139149;-58
2022/06/23 16:16:35;;;;;;;3.20;1.40;;;;;;;26.35;33.54;98907.32;232699;1222;139392;-58
2022/06/23 16:21:42;;;;;;;6.10;2.00;;;;;;;26.34;33.62;98900.50;232609;1223;139909;-56
2022/06/23 16:27:09;;;;;;;4.90;1.70;;;;;;;26.39;33.90;98904.27;232198;1224;139299;-58
2022/06/23 16:32:36;;;;;;;3.50;1.40;;;;;;;26.32;33.83;98907.67;232480;1223;138600;-57
2022/06/23 16:37:47;;;;;;;4.10;1.80;;;;;;;26.21;34.02;98903.14;232566;1223;140734;-55
2022/06/23 16:43:04;;;;;;;6.10;2.00;;;;;;;26.11;33.95;98905.17;232593;1223;139245;-57
2022/06/23 16:48:28;;;;;;;6.40;1.80;;;;;;;26.02;34.13;98903.29;232661;1222;138685;-56
2022/06/23 16:53:40;;;;;;;10.20;1.80;;;;;;;25.91;34.31;98898.89;232618;1223;138407;-56
2022/06/23 16:58:55;;;;;;;4.80;2.10;;;;;;;25.86;34.40;98896.16;232536;1223;138886;-56
2022/06/23 17:04:13;;;;;;;3.80;1.60;;;;;;;25.83;34.74;98895.52;232594;1223;139285;-58
2022/06/23 17:09:28;;;;;;;5.80;1.70;;;;;;;25.80;34.72;98893.70;232657;1221;139555;-60
2022/06/23 17:14:38;;;;;;;7.80;2.00;;;;;;;25.73;34.87;98892.86;232645;1223;139790;-60
2022/06/23 17:19:47;;;;;;;5.20;1.90;;;;;;;25.61;35.21;98900.48;232789;1222;139793;-56
2022/06/23 17:24:54;;;;;;;5.90;1.80;;;;;;;25.53;35.28;98903.45;232615;1222;139370;-58
2022/06/23 17:30:16;;;;;;;6.00;2.00;;;;;;;25.50;35.63;98906.27;232538;1223;139138;-59
2022/06/23 17:35:52;;;;;;;6.40;1.70;;;;;;;25.49;35.77;98908.66;232212;1223;138945;-58
2022/06/23 17:46:37;;;;;;;3.60;2.00;;;;;;;25.46;36.50;98912.73;232560;1223;139234;-58
2022/06/23 17:51:48;;;;;;;;;;;;;;;25.41;36.51;98911.05;232755;1222;140278;-58
2022/06/23 17:57:04;;;;;;;47.20;36.20;;;;;;;25.38;36.89;98920.92;232375;1223;125457;-58
2022/06/23 18:02:13;;;;;;;10.70;5.90;;;;;;;25.35;37.18;98927.59;232442;1223;138873;-58
2022/06/23 18:07:28;;;;;;;4.40;2.40;;;;;;;25.27;37.38;98922.46;232345;1223;139348;-58
2022/06/23 18:12:41;;;;;;;5.40;2.30;;;;;;;25.19;37.54;98925.14;232146;1223;138921;-61
2022/06/23 18:18:13;;;;;;;6.10;2.30;;;;;;;25.12;37.69;98928.07;232232;1223;139242;-60
2022/06/23 18:23:28;;;;;;;5.10;2.30;;;;;;;25.01;37.89;98924.27;232680;1222;138994;-60
2022/06/23 18:28:45;;;;;;;7.50;2.40;;;;;;;24.94;38.00;98936.11;232674;1223;138657;-62
2022/06/23 18:34:12;;;;;;;208.70;163.50;;;;;;;24.88;38.32;98946.98;232814;1222;138789;-59
2022/06/23 18:39:31;;;;;;;18.50;9.60;;;;;;;24.81;38.54;98952.48;232380;1223;139489;-58
2022/06/23 18:44:43;;;;;;;6.90;3.90;;;;;;;24.73;38.68;98952.16;232051;1224;139115;-59
2022/06/23 18:49:58;;;;;;;5.90;3.50;;;;;;;24.69;38.96;98957.56;232290;1224;139119;-58
2022/06/23 18:55:05;;;;;;;4.20;2.90;;;;;;;24.60;39.06;98956.64;232428;1223;139541;-60
2022/06/23 19:00:12;;;;;;;6.50;3.30;;;;;;;24.51;39.26;98953.58;232373;1223;138772;-59
2022/06/23 19:05:35;;;;;;;151.10;133.10;;;;;;;24.46;39.52;98968.70;232548;1223;141097;-57
2022/06/23 19:11:01;;;;;;;33.90;23.80;;;;;;;24.38;39.71;98966.21;232633;1222;139537;-61
2022/06/23 19:16:28;;;;;;;11.50;4.00;;;;;;;24.35;39.97;98979.55;232569;1223;140747;-60
2022/06/23 19:21:47;;;;;;;36.80;23.50;;;;;;;24.27;40.00;98985.70;232666;1223;139514;-58
2022/06/23 19:27:18;;;;;;;10.10;6.00;;;;;;;24.18;40.14;98988.22;232704;1223;138924;-58
2022/06/23 19:32:36;;;;;;;9.20;4.00;;;;;;;24.03;40.28;98984.54;232540;1223;139595;-60
2022/06/23 19:37:57;;;;;;;5.70;3.70;;;;;;;23.88;40.53;98989.67;232590;1223;138947;-60
2022/06/23 19:43:22;;;;;;;151.80;125.70;;;;;;;23.71;40.75;98989.02;232955;1222;138989;-59
2022/06/23 19:48:40;;;;;;;12.50;6.30;;;;;;;23.61;41.19;98992.48;232466;1223;139407;-58
2022/06/23 19:54:03;;;;;;;11.80;3.90;;;;;;;23.53;41.38;98990.54;232360;1223;139006;-57
2022/06/23 19:59:28;;;;;;;284.10;220.30;;;;;;;23.45;41.50;98991.46;232809;1222;138907;-59
2022/06/23 20:04:38;;;;;;;16.60;11.20;;;;;;;23.36;41.74;98990.17;232620;1222;140098;-58
2022/06/23 20:10:00;;;;;;;10.80;4.80;;;;;;;23.23;41.82;98988.48;232570;1223;138701;-59
2022/06/23 20:15:24;;;;;;;8.30;3.90;;;;;;;23.05;42.07;98985.80;232568;1223;139871;-60
2022/06/23 20:20:32;;;;;;;8.20;4.00;;;;;;;22.91;42.43;98987.23;232492;1222;139004;-57
2022/06/23 20:25:47;;;;;;;16.70;6.50;;;;;;;22.78;42.78;98995.91;231991;1223;138773;-62
2022/06/23 20:30:50;;;;;;;14.80;9.40;;;;;;;22.71;42.97;98990.98;232235;1223;140077;-56
2022/06/23 20:36:13;;;;;;;13.10;4.50;;;;;;;22.62;43.12;98988.52;232277;1224;139384;-58
2022/06/23 20:41:23;;;;;;;12.70;3.90;;;;;;;22.53;43.36;98992.28;232275;1224;140123;-61
2022/06/23 20:47:06;;;;;;;9.60;4.00;;;;;;;22.41;43.39;98996.98;231995;1223;139252;-59
2022/06/23 20:52:28;;;;;;;8.80;3.70;;;;;;;22.30;43.51;98998.48;232051;1223;138705;-58
2022/06/23 20:57:41;;;;;;;11.50;4.30;;;;;;;22.18;43.79;98996.16;232356;1223;139160;-61
2022/06/23 21:03:00;;;;;;;8.80;3.70;;;;;;;22.09;44.04;98991.76;232535;1223;140104;-59
2022/06/23 21:08:22;;;;;;;8.60;4.30;;;;;;;21.98;44.05;98984.84;232837;1222;138960;-58
2022/06/23 21:13:46;;;;;;;6.70;3.40;;;;;;;21.91;44.18;98985.89;232485;1223;138635;-58
2022/06/23 21:19:10;;;;;;;9.90;4.70;;;;;;;21.82;44.31;98983.52;232471;1223;138619;-60
2022/06/23 21:24:21;;;;;;;7.10;3.60;;;;;;;21.74;44.26;98983.95;232632;1222;139317;-58
2022/06/23 21:29:54;;;;;;;8.70;4.10;;;;;;;21.70;44.44;98987.10;232483;1223;138603;-59
2022/06/23 21:35:22;;;;;;;8.10;3.60;;;;;;;21.62;44.36;98984.65;232325;1223;138575;-59
2022/06/23 21:40:41;;;;;;;8.70;3.80;;;;;;;21.54;44.48;98985.98;232657;1223;139354;-60
2022/06/23 21:45:46;;;;;;;11.50;3.80;;;;;;;21.45;44.61;98986.77;232644;1222;139101;-60
2022/06/23 21:51:00;;;;;;;8.10;3.40;;;;;;;21.36;44.84;98985.23;232340;1223;139304;-60
2022/06/23 21:56:31;;;;;;;5.30;3.30;;;;;;;21.26;44.93;98982.50;232322;1223;139249;-61
2022/06/23 22:01:57;;;;;;;6.50;3.40;;;;;;;21.18;44.90;98986.77;232842;1222;139883;-60
2022/06/23 22:07:22;;;;;;;10.00;3.10;;;;;;;21.12;44.88;98988.75;233421;1222;139483;-59
2022/06/23 22:12:36;;;;;;;5.60;3.20;;;;;;;21.06;44.83;98988.09;233400;1222;139219;-60
2022/06/23 22:17:57;;;;;;;7.50;3.10;;;;;;;21.02;44.93;98991.02;233459;1222;138664;-61
2022/06/23 22:23:22;;;;;;;7.20;2.80;;;;;;;20.98;45.00;98993.48;233426;1222;138860;-60
2022/06/23 22:28:25;;;;;;;6.20;3.50;;;;;;;20.89;45.01;98994.20;233324;1222;139471;-62
2022/06/23 22:33:35;;;;;;;3.70;2.80;;;;;;;20.81;45.18;98999.58;233380;1221;138542;-58
2022/06/23 22:39:01;;;;;;;5.50;3.00;;;;;;;20.73;45.32;98992.45;232985;1223;138687;-62
2022/06/23 22:44:46;;;;;;;3.90;3.10;;;;;;;20.69;45.40;98994.71;233230;1222;139567;-61
2022/06/23 22:49:50;;;;;;;5.20;2.90;;;;;;;20.61;45.56;98999.85;233392;1222;138710;-59
2022/06/23 22:54:54;;;;;;;7.90;3.30;;;;;;;20.52;45.63;98994.30;233486;1222;139427;-60
2022/06/23 22:59:59;;;;;;;5.70;3.30;;;;;;;20.44;45.68;98995.52;233458;1222;138535;-58
2022/06/23 23:05:02;;;;;;;8.60;3.10;;;;;;;20.36;45.93;98998.46;233428;1222;138846;-60
2022/06/23 23:10:26;;;;;;;7.00;3.20;;;;;;;20.27;46.14;99002.99;233484;1222;139220;-60
2022/06/23 23:15:39;;;;;;;6.60;3.10;;;;;;;20.15;46.31;98998.63;233147;1222;139136;-61
2022/06/23 23:21:03;;;;;;;6.50;2.90;;;;;;;20.07;46.34;99004.23;233380;1222;138622;-60
2022/06/23 23:26:28;;;;;;;6.40;2.60;;;;;;;19.97;46.59;99005.13;233039;1222;139333;-61
2022/06/23 23:31:31;;;;;;;6.40;3.10;;;;;;;19.89;46.75;99009.23;232791;1222;138780;-61
2022/06/23 23:36:34;;;;;;;6.00;3.00;;;;;;;19.80;46.88;99016.77;232308;1224;139395;-60
2022/06/23 23:41:38;;;;;;;3.60;2.80;;;;;;;19.71;46.82;99009.59;232350;1224;139693;-60
2022/06/23 23:46:50;;;;;;;6.20;2.90;;;;;;;19.65;47.03;99006.16;232861;1222;138488;-60
2022/06/23 23:51:54;;;;;;;6.60;2.70;;;;;;;19.60;47.15;99005.53;232793;1223;139479;-61
2022/06/23 23:57:03;;;;;;;5.40;3.20;;;;;;;19.52;47.04;99000.45;232432;1224;139298;-61
